sensor_id;sensor_type;location;lat;lon;timestamp;P1;P2;P0
74426;PMS7003;62859;53.906;27.430;2023-04-01T00:01:16;14.5;13.3;8.8
74426;PMS7003;62859;53.906;27.430;2023-04-01T00:06:34;12;11.3;8.7
74426;PMS7003;62859;53.906;27.430;2023-04-01T00:11:18;15.3;13.3;8.7
74426;PMS7003;62859;53.906;27.430;2023-04-01T00:16:16;11.7;11.3;8.7
74426;PMS7003;62859;53.906;27.430;2023-04-01T00:21:34;12.3;11.5;8.5
74426;PMS7003;62859;53.906;27.430;2023-04-01T00:25:52;13.3;12;8
74426;PMS7003;62859;53.906;27.430;2023-04-01T00:31:34;13;12.7;8.7
74426;PMS7003;62859;53.906;27.430;2023-04-01T00:36:19;12.7;10.7;8.3
74426;PMS7003;62859;53.906;27.430;2023-04-01T00:40:58;11.3;10;7.3
74426;PMS7003;62859;53.906;27.430;2023-04-01T00:46:32;13.3;10.3;7.7
74426;PMS7003;62859;53.906;27.430;2023-04-01T00:51:11;10;9.3;8
74426;PMS7003;62859;53.906;27.430;2023-04-01T00:56:33;12.5;9.8;7.3
74426;PMS7003;62859;53.906;27.430;2023-04-01T01:01:16;12;10.7;8.3
74426;PMS7003;62859;53.906;27.430;2023-04-01T01:06:07;10.3;9.3;7
74426;PMS7003;62859;53.906;27.430;2023-04-01T01:11:34;10.7;10;7.3
74426;PMS7003;62859;53.906;27.430;2023-04-01T01:16:13;11.3;10;7.8
74426;PMS7003;62859;53.906;27.430;2023-04-01T01:21:37;11;10.3;7.3
74426;PMS7003;62859;53.906;27.430;2023-04-01T01:26:22;12;10.3;8
74426;PMS7003;62859;53.906;27.430;2023-04-01T01:31:17;13.3;12.3;7.3
74426;PMS7003;62859;53.906;27.430;2023-04-01T01:36:33;12;10.3;8
74426;PMS7003;62859;53.906;27.430;2023-04-01T01:41:24;15.7;12.7;8.3
74426;PMS7003;62859;53.906;27.430;2023-04-01T01:46:23;14;11.3;8
74426;PMS7003;62859;53.906;27.430;2023-04-01T01:51:18;12.3;11.7;7.7
74426;PMS7003;62859;53.906;27.430;2023-04-01T01:55:52;12.3;11;8.3
74426;PMS7003;62859;53.906;27.430;2023-04-01T02:01:33;10.3;9.7;8
74426;PMS7003;62859;53.906;27.430;2023-04-01T02:06:19;16.3;15.7;11.7
74426;PMS7003;62859;53.906;27.430;2023-04-01T02:11:23;15.7;14.3;9.3
74426;PMS7003;62859;53.906;27.430;2023-04-01T02:16:33;12.3;10;7.8
74426;PMS7003;62859;53.906;27.430;2023-04-01T02:20:52;9;8;6.7
74426;PMS7003;62859;53.906;27.430;2023-04-01T02:26:32;10.3;10;6.7
74426;PMS7003;62859;53.906;27.430;2023-04-01T02:31:10;12;10.3;7
74426;PMS7003;62859;53.906;27.430;2023-04-01T02:36:26;14.5;11;8
74426;PMS7003;62859;53.906;27.430;2023-04-01T02:41:36;12.7;10.7;5.7
74426;PMS7003;62859;53.906;27.430;2023-04-01T02:46:32;10.7;10;7.7
74426;PMS7003;62859;53.906;27.430;2023-04-01T02:51:32;11;9.8;6.8
74426;PMS7003;62859;53.906;27.430;2023-04-01T02:56:10;10;9.7;7.7
74426;PMS7003;62859;53.906;27.430;2023-04-01T03:01:22;9.3;8.7;6.3
74426;PMS7003;62859;53.906;27.430;2023-04-01T03:06:32;9.7;8;6.7
74426;PMS7003;62859;53.906;27.430;2023-04-01T03:10:52;10.5;9.8;6.5
74426;PMS7003;62859;53.906;27.430;2023-04-01T03:16:32;11.3;9.3;5.7
74426;PMS7003;62859;53.906;27.430;2023-04-01T03:20:52;10.7;9.3;6.7
74426;PMS7003;62859;53.906;27.430;2023-04-01T03:26:22;10.3;9.3;6.3
74426;PMS7003;62859;53.906;27.430;2023-04-01T03:31:32;11;9.5;7
74426;PMS7003;62859;53.906;27.430;2023-04-01T03:36:10;13.7;11.3;7
74426;PMS7003;62859;53.906;27.430;2023-04-01T03:41:32;12.3;10.3;7
74426;PMS7003;62859;53.906;27.430;2023-04-01T03:46:10;10.3;9.7;7.7
74426;PMS7003;62859;53.906;27.430;2023-04-01T03:51:22;9.8;9.3;7.3
74426;PMS7003;62859;53.906;27.430;2023-04-01T03:56:32;10.7;8.3;6.3
74426;PMS7003;62859;53.906;27.430;2023-04-01T04:00:52;11;9.3;6.3
74426;PMS7003;62859;53.906;27.430;2023-04-01T04:06:32;10.3;9;6
74426;PMS7003;62859;53.906;27.430;2023-04-01T04:11:00;9.5;8.8;5.8
74426;PMS7003;62859;53.906;27.430;2023-04-01T04:16:22;12.3;10;7.7
74426;PMS7003;62859;53.906;27.430;2023-04-01T04:21:32;12.3;10.7;6.7
74426;PMS7003;62859;53.906;27.430;2023-04-01T04:25:53;10.3;9.7;6.3
74426;PMS7003;62859;53.906;27.430;2023-04-01T04:31:32;9.8;9;7.5
74426;PMS7003;62859;53.906;27.430;2023-04-01T04:36:03;14.3;13.3;9.3
74426;PMS7003;62859;53.906;27.430;2023-04-01T04:41:20;14.7;12.7;9
74426;PMS7003;62859;53.906;27.430;2023-04-01T04:46:32;14.3;12;8.8
74426;PMS7003;62859;53.906;27.430;2023-04-01T04:50:52;10.7;9.7;7.7
74426;PMS7003;62859;53.906;27.430;2023-04-01T04:56:32;13.3;12.7;8.3
74426;PMS7003;62859;53.906;27.430;2023-04-01T05:01:06;13.7;12.3;8.7
74426;PMS7003;62859;53.906;27.430;2023-04-01T05:06:22;12;10.3;7.5
74426;PMS7003;62859;53.906;27.430;2023-04-01T05:11:32;9.7;8.7;6.3
74426;PMS7003;62859;53.906;27.430;2023-04-01T05:16:02;10.7;9.7;7
74426;PMS7003;62859;53.906;27.430;2023-04-01T05:21:32;10.3;10;7
74426;PMS7003;62859;53.906;27.430;2023-04-01T05:26:32;13;11;7.8
74426;PMS7003;62859;53.906;27.430;2023-04-01T05:31:22;12;10.7;7
74426;PMS7003;62859;53.906;27.430;2023-04-01T05:36:18;13.7;12;8.3
74426;PMS7003;62859;53.906;27.430;2023-04-01T05:40:58;12.7;12;7.7
74426;PMS7003;62859;53.906;27.430;2023-04-01T05:45:58;12.8;11.5;8
74426;PMS7003;62859;53.906;27.430;2023-04-01T05:51:24;12.3;10.7;7.3
74426;PMS7003;62859;53.906;27.430;2023-04-01T05:56:30;9.3;9.3;7
74426;PMS7003;62859;53.906;27.430;2023-04-01T06:01:24;9.3;8.7;6.3
74426;PMS7003;62859;53.906;27.430;2023-04-01T06:05:52;12;9.8;6
74426;PMS7003;62859;53.906;27.430;2023-04-01T06:11:13;9;9;6.3
74426;PMS7003;62859;53.906;27.430;2023-04-01T06:16:27;9.7;8.7;6
74426;PMS7003;62859;53.906;27.430;2023-04-01T06:21:37;11.3;8.7;6.7
74426;PMS7003;62859;53.906;27.430;2023-04-01T06:26:25;13.5;11.5;8.3
74426;PMS7003;62859;53.906;27.430;2023-04-01T06:30:53;10;10;7.3
74426;PMS7003;62859;53.906;27.430;2023-04-01T06:36:13;9.3;8;6
74426;PMS7003;62859;53.906;27.430;2023-04-01T06:41:39;13.3;12;8.3
74426;PMS7003;62859;53.906;27.430;2023-04-01T06:46:26;13.3;12.7;8.7
74426;PMS7003;62859;53.906;27.430;2023-04-01T06:51:25;11;9.7;7.3
74426;PMS7003;62859;53.906;27.430;2023-04-01T06:55:53;15;13.3;9.3
74426;PMS7003;62859;53.906;27.430;2023-04-01T07:00:53;16;12.8;9.3
74426;PMS7003;62859;53.906;27.430;2023-04-01T07:06:25;16;11.7;9.3
74426;PMS7003;62859;53.906;27.430;2023-04-01T07:11:34;12;10.3;7.7
74426;PMS7003;62859;53.906;27.430;2023-04-01T07:16:25;11.3;10.7;7.3
74426;PMS7003;62859;53.906;27.430;2023-04-01T07:21:28;15;11.8;7.5
74426;PMS7003;62859;53.906;27.430;2023-04-01T07:25:53;10.7;10.3;8.7
74426;PMS7003;62859;53.906;27.430;2023-04-01T07:31:19;13;12;9.3
74426;PMS7003;62859;53.906;27.430;2023-04-01T07:36:29;11.7;11.3;8.3
74426;PMS7003;62859;53.906;27.430;2023-04-01T07:41:27;13.3;11.3;8.8
74426;PMS7003;62859;53.906;27.430;2023-04-01T07:45:54;15.7;12.7;10
74426;PMS7003;62859;53.906;27.430;2023-04-01T07:50:54;14.3;11.7;9.3
74426;PMS7003;62859;53.906;27.430;2023-04-01T07:56:25;19.7;18;12
74426;PMS7003;62859;53.906;27.430;2023-04-01T08:01:33;11.5;10.5;8.3
74426;PMS7003;62859;53.906;27.430;2023-04-01T08:06:25;15.3;13;9.7
74426;PMS7003;62859;53.906;27.430;2023-04-01T08:10:54;12;10.7;8
74426;PMS7003;62859;53.906;27.430;2023-04-01T08:15:53;12.3;9.7;7.7
74426;PMS7003;62859;53.906;27.430;2023-04-01T08:21:25;13.3;11.3;8.5
74426;PMS7003;62859;53.906;27.430;2023-04-01T08:26:34;8.7;6.7;5.3
74426;PMS7003;62859;53.906;27.430;2023-04-01T08:30:53;9;9;6.3
74426;PMS7003;62859;53.906;27.430;2023-04-01T08:36:10;11.5;10.3;8
74426;PMS7003;62859;53.906;27.430;2023-04-01T08:41:15;16;14;10.3
74426;PMS7003;62859;53.906;27.430;2023-04-01T08:46:28;16.7;14.3;11
74426;PMS7003;62859;53.906;27.430;2023-04-01T08:51:40;17.3;15.3;12
74426;PMS7003;62859;53.906;27.430;2023-04-01T08:56:23;16.5;13.3;9.8
74426;PMS7003;62859;53.906;27.430;2023-04-01T09:01:10;15.7;15;10.7
74426;PMS7003;62859;53.906;27.430;2023-04-01T09:06:12;17.3;15.7;11.3
74426;PMS7003;62859;53.906;27.430;2023-04-01T09:11:31;20.3;19;13.3
74426;PMS7003;62859;53.906;27.430;2023-04-01T09:17:09;20.3;17.8;12.3
74426;PMS7003;62859;53.906;27.430;2023-04-01T09:21:31;17.3;16.3;11
74426;PMS7003;62859;53.906;27.430;2023-04-01T09:26:07;19.7;17.7;13.3
74426;PMS7003;62859;53.906;27.430;2023-04-01T09:30:59;24.3;20;13.3
74426;PMS7003;62859;53.906;27.430;2023-04-01T09:36:32;28;25.3;17.5
74426;PMS7003;62859;53.906;27.430;2023-04-01T09:41:35;30.3;28.7;19.3
74426;PMS7003;62859;53.906;27.430;2023-04-01T09:46:29;38;33.7;21.7
74426;PMS7003;62859;53.906;27.430;2023-04-01T09:50:57;39;32.3;21.7
74426;PMS7003;62859;53.906;27.430;2023-04-01T09:56:19;27;24.8;16.3
74426;PMS7003;62859;53.906;27.430;2023-04-01T10:06:36;22.7;19.7;14.7
74426;PMS7003;62859;53.906;27.430;2023-04-01T10:11:50;24;23.3;16.3
74426;PMS7003;62859;53.906;27.430;2023-04-01T10:16:16;25;21.5;14.5
74426;PMS7003;62859;53.906;27.430;2023-04-01T10:20:58;26.3;23.7;16.7
74426;PMS7003;62859;53.906;27.430;2023-04-01T10:26:03;30;25.3;17.7
74426;PMS7003;62859;53.906;27.430;2023-04-01T10:31:41;35;31;18.8
74426;PMS7003;62859;53.906;27.430;2023-04-01T10:36:06;34;27;17
74426;PMS7003;62859;53.906;27.430;2023-04-01T10:41:10;28.7;23.7;15.3
74426;PMS7003;62859;53.906;27.430;2023-04-01T10:46:28;26.7;23.3;14.7
74426;PMS7003;62859;53.906;27.430;2023-04-01T10:51:21;24.8;21;13.8
74426;PMS7003;62859;53.906;27.430;2023-04-01T10:56:34;21;19.7;11.3
74426;PMS7003;62859;53.906;27.430;2023-04-01T11:01:27;17.3;16.3;11.3
74426;PMS7003;62859;53.906;27.430;2023-04-01T11:06:15;22.7;18.3;12
74426;PMS7003;62859;53.906;27.430;2023-04-01T11:11:20;20;18.3;12.5
74426;PMS7003;62859;53.906;27.430;2023-04-01T11:16:15;19.7;18;12
74426;PMS7003;62859;53.906;27.430;2023-04-01T11:21:38;18.3;17.7;12
74426;PMS7003;62859;53.906;27.430;2023-04-01T11:26:28;21;19;12.7
74426;PMS7003;62859;53.906;27.430;2023-04-01T11:31:29;20;18.8;12.3
74426;PMS7003;62859;53.906;27.430;2023-04-01T11:36:04;16.7;14.7;11.3
74426;PMS7003;62859;53.906;27.430;2023-04-01T11:40:56;23;20.7;12
74426;PMS7003;62859;53.906;27.430;2023-04-01T11:46:33;17;16;11.3
74426;PMS7003;62859;53.906;27.430;2023-04-01T11:51:29;21.8;19;12.5
74426;PMS7003;62859;53.906;27.430;2023-04-01T11:56:01;19;18.7;12.3
74426;PMS7003;62859;53.906;27.430;2023-04-01T12:01:13;24.3;20;13.7
74426;PMS7003;62859;53.906;27.430;2023-04-01T12:06:23;21.7;21;13.7
74426;PMS7003;62859;53.906;27.430;2023-04-01T12:11:34;26.5;23;14.8
74426;PMS7003;62859;53.906;27.430;2023-04-01T12:16:29;30.7;25.7;16.7
74426;PMS7003;62859;53.906;27.430;2023-04-01T12:21:04;27.7;24;14.7
74426;PMS7003;62859;53.906;27.430;2023-04-01T12:26:19;26.8;24.5;16.8
74426;PMS7003;62859;53.906;27.430;2023-04-01T12:31:03;30.3;26.7;17.3
74426;PMS7003;62859;53.906;27.430;2023-04-01T12:36:35;29;24.7;16.7
74426;PMS7003;62859;53.906;27.430;2023-04-01T12:41:26;25.7;23.7;15.7
74426;PMS7003;62859;53.906;27.430;2023-04-01T12:45:56;30.3;24.3;15.5
74426;PMS7003;62859;53.906;27.430;2023-04-01T12:51:20;27;23.7;14.7
74426;PMS7003;62859;53.906;27.430;2023-04-01T12:55:55;24;22;13.7
74426;PMS7003;62859;53.906;27.430;2023-04-01T13:01:40;23.3;20.3;14.3
74426;PMS7003;62859;53.906;27.430;2023-04-01T13:06:29;21.5;18.8;12.8
74426;PMS7003;62859;53.906;27.430;2023-04-01T13:11:08;22.7;17.7;12.7
74426;PMS7003;62859;53.906;27.430;2023-04-01T13:16:11;18.7;16;10.7
74426;PMS7003;62859;53.906;27.430;2023-04-01T13:20:58;16.3;14.3;10.7
74426;PMS7003;62859;53.906;27.430;2023-04-01T13:26:36;11.8;10.3;6.8
74426;PMS7003;62859;53.906;27.430;2023-04-01T13:31:29;11.3;10;7.7
74426;PMS7003;62859;53.906;27.430;2023-04-01T13:35:58;10.3;8;6
74426;PMS7003;62859;53.906;27.430;2023-04-01T13:41:13;7.7;7.7;4.7
74426;PMS7003;62859;53.906;27.430;2023-04-01T13:46:11;7.5;5.8;4.5
74426;PMS7003;62859;53.906;27.430;2023-04-01T13:52:08;7;6.3;5
74426;PMS7003;62859;53.906;27.430;2023-04-01T13:56:29;10.3;10;7.3
74426;PMS7003;62859;53.906;27.430;2023-04-01T14:00:55;15.3;12.3;8.7
74426;PMS7003;62859;53.906;27.430;2023-04-01T14:06:17;12;9.5;6.3
74426;PMS7003;62859;53.906;27.430;2023-04-01T14:11:09;14.3;12.7;9
74426;PMS7003;62859;53.906;27.430;2023-04-01T14:16:31;13.7;11.3;9.3
74426;PMS7003;62859;53.906;27.430;2023-04-01T14:21:36;14.5;11.5;8.5
74426;PMS7003;62859;53.906;27.430;2023-04-01T14:26:35;13;11;8
74426;PMS7003;62859;53.906;27.430;2023-04-01T14:31:15;14.7;13.7;8
74426;PMS7003;62859;53.906;27.430;2023-04-01T14:35:58;10;9.7;6.7
74426;PMS7003;62859;53.906;27.430;2023-04-01T14:41:40;11.5;9.3;7.3
74426;PMS7003;62859;53.906;27.430;2023-04-01T14:46:45;10.3;9;7.3
74426;PMS7003;62859;53.906;27.430;2023-04-01T14:51:28;10.3;8.7;5
74426;PMS7003;62859;53.906;27.430;2023-04-01T14:56:05;11;9;6.3
74426;PMS7003;62859;53.906;27.430;2023-04-01T15:01:07;11.5;10.8;7.3
74426;PMS7003;62859;53.906;27.430;2023-04-01T15:06:22;14.7;13;9
74426;PMS7003;62859;53.906;27.430;2023-04-01T15:11:41;14.7;13.3;10
74426;PMS7003;62859;53.906;27.430;2023-04-01T15:16:27;15.7;14;11
74426;PMS7003;62859;53.906;27.430;2023-04-01T15:21:28;15.3;13;10.3
74426;PMS7003;62859;53.906;27.430;2023-04-01T15:26:19;18.7;15.7;10.7
74426;PMS7003;62859;53.906;27.430;2023-04-01T15:31:24;20.3;15.7;11
74426;PMS7003;62859;53.906;27.430;2023-04-01T15:36:35;18.7;16;11
74426;PMS7003;62859;53.906;27.430;2023-04-01T15:41:01;18.5;15.5;11
74426;PMS7003;62859;53.906;27.430;2023-04-01T15:46:14;17.7;17;11.3
74426;PMS7003;62859;53.906;27.430;2023-04-01T15:51:11;46.3;38;25.3
74426;PMS7003;62859;53.906;27.430;2023-04-01T15:56:30;22.7;20.7;14.7
74426;PMS7003;62859;53.906;27.430;2023-04-01T16:01:24;18.8;17.3;11.8
74426;PMS7003;62859;53.906;27.430;2023-04-01T16:06:32;21;18.3;12.3
74426;PMS7003;62859;53.906;27.430;2023-04-01T16:11:14;20;19;12
74426;PMS7003;62859;53.906;27.430;2023-04-01T16:15:57;23;19.3;12
74426;PMS7003;62859;53.906;27.430;2023-04-01T16:21:21;20.3;18;12.7
74426;PMS7003;62859;53.906;27.430;2023-04-01T16:26:36;23.3;20.7;14.7
74426;PMS7003;62859;53.906;27.430;2023-04-01T16:31:29;21;20;14.7
74426;PMS7003;62859;53.906;27.430;2023-04-01T16:36:13;30.3;26.8;18
74426;PMS7003;62859;53.906;27.430;2023-04-01T16:41:19;26.7;23;15.7
74426;PMS7003;62859;53.906;27.430;2023-04-01T16:46:29;29;27.3;18.7
74426;PMS7003;62859;53.906;27.430;2023-04-01T16:51:37;29;27;18
74426;PMS7003;62859;53.906;27.430;2023-04-01T16:56:16;31.5;30;19.5
74426;PMS7003;62859;53.906;27.430;2023-04-01T17:01:01;32.3;29.7;18.3
74426;PMS7003;62859;53.906;27.430;2023-04-01T17:06:03;33.3;29.7;20
74426;PMS7003;62859;53.906;27.430;2023-04-01T17:11:30;35;31.3;21.7
74426;PMS7003;62859;53.906;27.430;2023-04-01T17:16:43;31.8;28.5;18.5
74426;PMS7003;62859;53.906;27.430;2023-04-01T17:21:38;34;29;18.3
74426;PMS7003;62859;53.906;27.430;2023-04-01T17:26:28;30.3;29;19.3
74426;PMS7003;62859;53.906;27.430;2023-04-01T17:31:21;31;28.3;19
74426;PMS7003;62859;53.906;27.430;2023-04-01T17:36:20;30.8;29;18
74426;PMS7003;62859;53.906;27.430;2023-04-01T17:41:30;30.7;26.7;18
74426;PMS7003;62859;53.906;27.430;2023-04-01T17:46:21;30.7;26.7;18
74426;PMS7003;62859;53.906;27.430;2023-04-01T17:51:33;29.7;27.3;17.7
74426;PMS7003;62859;53.906;27.430;2023-04-01T17:56:17;23.8;23;16.8
74426;PMS7003;62859;53.906;27.430;2023-04-01T18:00:59;26;25;17.7
74426;PMS7003;62859;53.906;27.430;2023-04-01T18:06:29;26;23.7;14.7
74426;PMS7003;62859;53.906;27.430;2023-04-01T18:11:28;22.3;19.8;12.8
74426;PMS7003;62859;53.906;27.430;2023-04-01T18:16:24;18.3;17.7;12.7
74426;PMS7003;62859;53.906;27.430;2023-04-01T18:21:13;17.7;14.3;10.7
74426;PMS7003;62859;53.906;27.430;2023-04-01T18:26:12;16.3;14.7;10.3
74426;PMS7003;62859;53.906;27.430;2023-04-01T18:31:34;16.8;14.5;10.5
74426;PMS7003;62859;53.906;27.430;2023-04-01T18:36:26;14.3;12.3;10
74426;PMS7003;62859;53.906;27.430;2023-04-01T18:41:12;13.7;13.3;9.3
74426;PMS7003;62859;53.906;27.430;2023-04-01T18:46:22;14.7;12.7;9.3
74426;PMS7003;62859;53.906;27.430;2023-04-01T18:51:11;11.3;10.5;8.3
74426;PMS7003;62859;53.906;27.430;2023-04-01T18:56:35;12.3;11.3;8.3
74426;PMS7003;62859;53.906;27.430;2023-04-01T19:01:28;12.3;10.3;7.3
74426;PMS7003;62859;53.906;27.430;2023-04-01T19:05:55;11.7;10.3;8
74426;PMS7003;62859;53.906;27.430;2023-04-01T19:11:04;15.3;13;8.5
74426;PMS7003;62859;53.906;27.430;2023-04-01T19:15:57;12.3;10.7;7.7
74426;PMS7003;62859;53.906;27.430;2023-04-01T19:21:35;13.3;11.3;7.7
74426;PMS7003;62859;53.906;27.430;2023-04-01T19:26:28;9;7.3;5.7
74426;PMS7003;62859;53.906;27.430;2023-04-01T19:31:29;11.3;9.3;6.8
74426;PMS7003;62859;53.906;27.430;2023-04-01T19:36:11;14.3;11.3;7.7
74426;PMS7003;62859;53.906;27.430;2023-04-01T19:41:02;9.7;9;5.7
74426;PMS7003;62859;53.906;27.430;2023-04-01T19:46:28;9;8.3;5.7
74426;PMS7003;62859;53.906;27.430;2023-04-01T19:51:19;10;7.5;5.5
74426;PMS7003;62859;53.906;27.430;2023-04-01T19:56:12;10.7;8.3;5.3
74426;PMS7003;62859;53.906;27.430;2023-04-01T20:01:03;10;9;6
74426;PMS7003;62859;53.906;27.430;2023-04-01T20:06:04;8.5;6.8;5
74426;PMS7003;62859;53.906;27.430;2023-04-01T20:11:37;9.3;6.3;5.7
74426;PMS7003;62859;53.906;27.430;2023-04-01T20:16:23;6.7;6.7;4.3
74426;PMS7003;62859;53.906;27.430;2023-04-01T20:20:56;9.7;8;6
74426;PMS7003;62859;53.906;27.430;2023-04-01T20:25:55;8.5;6.8;5.8
74426;PMS7003;62859;53.906;27.430;2023-04-01T20:31:12;7.7;6.3;4.7
74426;PMS7003;62859;53.906;27.430;2023-04-01T20:36:34;8.7;8.3;6
74426;PMS7003;62859;53.906;27.430;2023-04-01T20:41:25;9.7;8.7;5.7
74426;PMS7003;62859;53.906;27.430;2023-04-01T20:46:19;8;7;5
74426;PMS7003;62859;53.906;27.430;2023-04-01T20:51:09;7.3;7.3;5
74426;PMS7003;62859;53.906;27.430;2023-04-01T20:56:17;6.7;6;4.3
74426;PMS7003;62859;53.906;27.430;2023-04-01T21:01:34;7.7;7;4.3
74426;PMS7003;62859;53.906;27.430;2023-04-01T21:06:15;7.3;7;4.5
74426;PMS7003;62859;53.906;27.430;2023-04-01T21:11:13;8.7;8.7;5.7
74426;PMS7003;62859;53.906;27.430;2023-04-01T21:16:08;9;7.3;6
74426;PMS7003;62859;53.906;27.430;2023-04-01T21:21:17;8;6;4.3
74426;PMS7003;62859;53.906;27.430;2023-04-01T21:26:38;8.5;7.5;4.5
74426;PMS7003;62859;53.906;27.430;2023-04-01T21:31:27;6.3;5.3;4
74426;PMS7003;62859;53.906;27.430;2023-04-01T21:36:14;7.3;6.7;5
74426;PMS7003;62859;53.906;27.430;2023-04-01T21:41:14;8;6.7;4.7
74426;PMS7003;62859;53.906;27.430;2023-04-01T21:46:16;7.8;7.8;5.8
74426;PMS7003;62859;53.906;27.430;2023-04-01T21:51:38;6.7;6;5
74426;PMS7003;62859;53.906;27.430;2023-04-01T22:01:21;9.3;7.8;5.3
74426;PMS7003;62859;53.906;27.430;2023-04-01T22:05:56;9.3;7;5.3
74426;PMS7003;62859;53.906;27.430;2023-04-01T22:10:56;7.3;6;4.7
74426;PMS7003;62859;53.906;27.430;2023-04-01T22:16:35;9.3;6.3;4.7
74426;PMS7003;62859;53.906;27.430;2023-04-01T22:21:26;10;7;5
74426;PMS7003;62859;53.906;27.430;2023-04-01T22:26:13;11;9;5.3
74426;PMS7003;62859;53.906;27.430;2023-04-01T22:30:55;8.7;8;5
74426;PMS7003;62859;53.906;27.430;2023-04-01T22:36:35;9.7;8;5.7
74426;PMS7003;62859;53.906;27.430;2023-04-01T22:41:24;10;9.3;5.8
74426;PMS7003;62859;53.906;27.430;2023-04-01T22:45:59;11.3;10;7
74426;PMS7003;62859;53.906;27.430;2023-04-01T22:51:20;14;11.7;8.7
74426;PMS7003;62859;53.906;27.430;2023-04-01T22:56:15;12;11;8
74426;PMS7003;62859;53.906;27.430;2023-04-01T23:01:34;13.8;12.3;7.8
74426;PMS7003;62859;53.906;27.430;2023-04-01T23:06:20;16.3;14.7;10
74426;PMS7003;62859;53.906;27.430;2023-04-01T23:11:07;19;15.3;9.7
74426;PMS7003;62859;53.906;27.430;2023-04-01T23:16:17;17.7;14.3;10.3
74426;PMS7003;62859;53.906;27.430;2023-04-01T23:21:11;14.8;14.3;10
74426;PMS7003;62859;53.906;27.430;2023-04-01T23:26:32;18.3;16.3;10.3
74426;PMS7003;62859;53.906;27.430;2023-04-01T23:31:40;16.3;14;9.3
74426;PMS7003;62859;53.906;27.430;2023-04-01T23:36:15;20;17;10.7
74426;PMS7003;62859;53.906;27.430;2023-04-01T23:41:17;16.8;15.3;10
74426;PMS7003;62859;53.906;27.430;2023-04-01T23:46:03;19;16.7;10
74426;PMS7003;62859;53.906;27.430;2023-04-01T23:51:35;19;16.7;9.7
74426;PMS7003;62859;53.906;27.430;2023-04-01T23:56:01;17.8;15.5;10.5
